createdAt,value
2023-12-02T00:00:46.598Z,101135.66
2023-12-02T00:03:14.530Z,101128.44
2023-12-02T00:05:42.585Z,101133.66
2023-12-02T00:08:10.311Z,101126.56
2023-12-02T00:10:38.066Z,101124.81
2023-12-02T00:13:05.783Z,101130.94
2023-12-02T00:15:33.565Z,101131.06
2023-12-02T00:18:01.410Z,101118.78
2023-12-02T00:20:29.868Z,101125.78
2023-12-02T00:22:57.618Z,101122.47
2023-12-02T00:25:25.505Z,101122.47
2023-12-02T00:27:53.374Z,101123.25
2023-12-02T00:30:21.279Z,101115.84
2023-12-02T00:32:49.116Z,101119.44
2023-12-02T00:35:16.878Z,101112.53
2023-12-02T00:37:44.631Z,101112.53
2023-12-02T00:40:12.607Z,101114.44
2023-12-02T00:42:40.400Z,101124.00
2023-12-02T00:45:08.787Z,101117.06
2023-12-02T00:47:36.608Z,101115.28
2023-12-02T00:50:04.727Z,101116.06
2023-12-02T00:52:32.486Z,101103.88
2023-12-02T00:55:00.400Z,101109.22
2023-12-02T00:57:28.762Z,101100.50
2023-12-02T00:59:56.644Z,101104.84
2023-12-02T01:02:24.671Z,101100.66
2023-12-02T01:04:52.576Z,101103.16
2023-12-02T01:07:20.293Z,101104.72
2023-12-02T01:09:48.033Z,101106.47
2023-12-02T01:12:15.781Z,101100.50
2023-12-02T01:14:43.505Z,101107.38
2023-12-02T01:17:11.474Z,101110.91
2023-12-02T01:19:39.225Z,101107.59
2023-12-02T01:22:07.100Z,101109.16
2023-12-02T01:24:34.819Z,101106.50
2023-12-02T01:27:02.716Z,101108.03
2023-12-02T01:29:30.492Z,101112.38
2023-12-02T01:31:58.389Z,101104.50
2023-12-02T01:34:26.488Z,101108.88
2023-12-02T01:36:54.205Z,101106.28
2023-12-02T01:39:22.057Z,101109.66
2023-12-02T01:41:49.831Z,101119.97
2023-12-02T01:44:17.598Z,101106.81
2023-12-02T01:46:45.461Z,101120.53
2023-12-02T01:49:13.645Z,101112.94
2023-12-02T01:51:41.882Z,101106.75
2023-12-02T01:54:09.732Z,101106.72
2023-12-02T01:56:37.650Z,101106.59
2023-12-02T01:59:05.753Z,101103.22
2023-12-02T02:01:33.429Z,101106.66
2023-12-02T02:04:01.334Z,101097.94
2023-12-02T02:06:29.562Z,101108.44
2023-12-02T02:08:57.398Z,101106.50
2023-12-02T02:11:25.261Z,101106.59
2023-12-02T02:13:53.045Z,101104.81
2023-12-02T02:16:20.756Z,101096.19
2023-12-02T02:18:48.568Z,101108.44
2023-12-02T02:21:21.623Z,101103.22
2023-12-02T02:23:49.411Z,101104.22
2023-12-02T02:26:17.170Z,101100.53
2023-12-02T02:28:44.987Z,101107.59
2023-12-02T02:31:12.799Z,101105.94
2023-12-02T02:33:40.549Z,101109.34
2023-12-02T02:36:09.376Z,101098.69
2023-12-02T02:38:37.211Z,101107.38
2023-12-02T02:41:05.762Z,101109.97
2023-12-02T02:43:33.448Z,101100.75
2023-12-02T02:46:01.203Z,101101.59
2023-12-02T02:48:29.458Z,101103.34
2023-12-02T02:50:57.290Z,101106.03
2023-12-02T02:53:25.006Z,101111.28
2023-12-02T02:55:52.741Z,101099.69
2023-12-02T02:58:20.482Z,101110.25
2023-12-02T03:00:48.250Z,101107.56
2023-12-02T03:03:16.036Z,101106.72
2023-12-02T03:05:43.822Z,101108.44
2023-12-02T03:08:11.586Z,101110.41
2023-12-02T03:10:40.059Z,101110.09
2023-12-02T03:13:08.058Z,101118.56
2023-12-02T03:15:35.777Z,101117.81
2023-12-02T03:18:03.832Z,101113.34
2023-12-02T03:20:31.735Z,101105.59
2023-12-02T03:22:59.523Z,101111.66
2023-12-02T03:25:27.340Z,101116.09
2023-12-02T03:27:55.209Z,101113.34
2023-12-02T03:30:23.626Z,101114.34
2023-12-02T03:32:51.463Z,101111.75
2023-12-02T03:35:19.366Z,101114.22
2023-12-02T03:37:47.230Z,101103.69
2023-12-02T03:40:14.975Z,101118.56
2023-12-02T03:42:42.824Z,101110.88
2023-12-02T03:45:11.442Z,101115.19
2023-12-02T03:47:39.322Z,101109.97
2023-12-02T03:50:07.503Z,101110.53
2023-12-02T03:52:35.548Z,101119.25
2023-12-02T03:55:03.601Z,101108.13
2023-12-02T03:57:31.529Z,101115.81
2023-12-02T03:59:59.604Z,101117.69
2023-12-02T04:02:27.683Z,101119.41
2023-12-02T04:04:55.498Z,101125.31
2023-12-02T04:07:23.419Z,101121.78
2023-12-02T04:09:51.265Z,101122.78
2023-12-02T04:12:19.681Z,101121.16
2023-12-02T04:14:47.439Z,101122.72
2023-12-02T04:17:15.241Z,101126.00
2023-12-02T04:19:43.532Z,101130.47
2023-12-02T04:22:11.370Z,101128.88
2023-12-02T04:24:39.388Z,101132.47
2023-12-02T04:27:08.661Z,101130.78
2023-12-02T04:29:41.981Z,101133.44
2023-12-02T04:32:10.363Z,101128.94
2023-12-02T04:34:38.313Z,101140.84
2023-12-02T04:37:08.794Z,101140.19
2023-12-02T04:39:36.626Z,101138.38
2023-12-02T04:42:04.805Z,101144.44
2023-12-02T04:44:32.681Z,101137.50
2023-12-02T04:47:00.478Z,101142.59
2023-12-02T04:49:28.325Z,101141.53
2023-12-02T04:51:56.120Z,101137.34
2023-12-02T04:54:23.941Z,101152.25
2023-12-02T04:56:51.672Z,101139.06
2023-12-02T04:59:19.477Z,101145.22
2023-12-02T05:01:47.413Z,101144.28
2023-12-02T05:04:15.366Z,101146.91
2023-12-02T05:06:43.415Z,101144.97
2023-12-02T05:09:11.347Z,101145.97
2023-12-02T05:11:41.931Z,101145.19
2023-12-02T05:14:09.668Z,101151.09
2023-12-02T05:16:37.354Z,101149.41
2023-12-02T05:19:05.155Z,101154.34
2023-12-02T05:21:32.889Z,101158.66
2023-12-02T05:24:01.503Z,101157.13
2023-12-02T05:26:30.168Z,101158.88
2023-12-02T05:28:57.930Z,101173.59
2023-12-02T05:31:25.785Z,101158.94
2023-12-02T05:33:53.583Z,101157.13
2023-12-02T05:36:21.596Z,101162.09
2023-12-02T05:38:49.461Z,101162.38
2023-12-02T05:41:17.312Z,101171.66
2023-12-02T05:43:45.095Z,101158.63
2023-12-02T05:46:19.323Z,101162.13
2023-12-02T05:48:47.295Z,101157.34
2023-12-02T05:51:15.253Z,101158.31
2023-12-02T05:53:43.024Z,101158.22
2023-12-02T05:56:11.042Z,101156.88
2023-12-02T05:58:38.968Z,101155.03
2023-12-02T06:01:07.057Z,101157.53
2023-12-02T06:03:34.836Z,101154.03
2023-12-02T06:06:02.735Z,101174.31
2023-12-02T06:08:30.581Z,101170.75
2023-12-02T06:10:58.361Z,101162.09
2023-12-02T06:13:26.056Z,101169.97
2023-12-02T06:15:53.810Z,101169.97
2023-12-02T06:18:21.574Z,101166.53
2023-12-02T06:20:49.338Z,101174.41
2023-12-02T06:23:17.033Z,101166.38
2023-12-02T06:25:45.153Z,101170.69
2023-12-02T06:28:12.909Z,101175.06
2023-12-02T06:30:41.038Z,101174.31
2023-12-02T06:33:08.932Z,101167.47
2023-12-02T06:35:36.685Z,101171.00
2023-12-02T06:38:04.411Z,101175.06
2023-12-02T06:40:32.106Z,101175.91
2023-12-02T06:42:59.834Z,101180.97
2023-12-02T06:45:27.660Z,101179.50
2023-12-02T06:47:55.522Z,101195.00
2023-12-02T06:50:23.580Z,101191.31
2023-12-02T06:52:52.271Z,101189.84
2023-12-02T06:57:50.573Z,101194.84
2023-12-02T07:00:20.314Z,101196.72
2023-12-02T07:02:48.122Z,101193.97
2023-12-02T07:05:15.895Z,101198.56
2023-12-02T07:07:43.721Z,101201.94
2023-12-02T07:10:11.427Z,101199.88
2023-12-02T07:12:39.325Z,101207.75
2023-12-02T07:15:09.178Z,101204.25
2023-12-02T07:17:37.127Z,101211.22
2023-12-02T07:20:05.312Z,101218.13
2023-12-02T07:22:33.021Z,101225.03
2023-12-02T07:25:00.762Z,101230.41
2023-12-02T07:27:30.176Z,101230.41
2023-12-02T07:32:29.036Z,101230.25
2023-12-02T07:34:56.851Z,101239.78
2023-12-02T07:37:24.628Z,101238.13
2023-12-02T07:39:52.340Z,101243.44
2023-12-02T07:42:20.002Z,101244.22
2023-12-02T07:44:47.817Z,101247.75
2023-12-02T07:47:15.601Z,101252.50
2023-12-02T07:49:43.479Z,101253.56
2023-12-02T07:52:11.232Z,101246.53
2023-12-02T07:54:39.060Z,101247.06
2023-12-02T07:57:07.106Z,101256.59
2023-12-02T07:59:34.847Z,101254.13
2023-12-02T08:02:02.716Z,101258.28
2023-12-02T08:04:30.679Z,101257.22
2023-12-02T08:06:58.571Z,101262.34
2023-12-02T08:09:26.244Z,101254.53
2023-12-02T08:11:53.901Z,101258.16
2023-12-02T08:14:21.660Z,101263.47
2023-12-02T08:16:49.913Z,101267.19
2023-12-02T08:19:18.047Z,101272.81
2023-12-02T08:21:45.863Z,101271.19
2023-12-02T08:24:13.623Z,101274.78
2023-12-02T08:26:41.444Z,101273.94
2023-12-02T08:29:09.253Z,101274.84
2023-12-02T08:31:37.007Z,101282.41
2023-12-02T08:34:04.764Z,101290.09
2023-12-02T08:36:43.245Z,101288.47
2023-12-02T08:39:11.189Z,101290.31
2023-12-02T08:41:39.006Z,101291.16
2023-12-02T08:44:06.742Z,101299.69
2023-12-02T08:46:34.514Z,101303.06
2023-12-02T08:49:02.479Z,101300.44
2023-12-02T08:51:30.406Z,101301.44
2023-12-02T08:54:02.025Z,101310.06
2023-12-02T08:56:30.214Z,101308.22
2023-12-02T08:58:58.493Z,101309.97
2023-12-02T09:01:27.258Z,101309.16
2023-12-02T09:03:55.206Z,101305.44
2023-12-02T09:06:23.784Z,101308.63
2023-12-02T09:08:55.212Z,101312.94
2023-12-02T09:11:23.116Z,101315.38
2023-12-02T09:13:51.362Z,101309.44
2023-12-02T09:16:19.045Z,101320.78
2023-12-02T09:18:47.124Z,101314.59
2023-12-02T09:21:46.056Z,101319.75
2023-12-02T09:24:37.858Z,101325.16
2023-12-02T09:27:09.020Z,101324.34
2023-12-02T09:29:42.948Z,101326.19
2023-12-02T09:32:46.617Z,101325.34
2023-12-02T09:35:14.541Z,101329.72
2023-12-02T09:37:59.446Z,101325.69
2023-12-02T09:40:39.664Z,101325.44
2023-12-02T09:43:45.878Z,101331.59
2023-12-02T09:46:32.173Z,101334.59
2023-12-02T09:49:32.527Z,101327.44
2023-12-02T09:52:00.301Z,101324.28
2023-12-02T09:54:53.417Z,101322.09
2023-12-02T09:57:27.178Z,101327.06
2023-12-02T10:00:14.178Z,101327.09
2023-12-02T10:03:00.894Z,101328.00
2023-12-02T10:05:39.397Z,101330.47
2023-12-02T10:08:49.451Z,101328.34
2023-12-02T10:11:45.249Z,101333.66
2023-12-02T10:14:33.620Z,101327.63
2023-12-02T10:17:04.193Z,101328.22
2023-12-02T10:19:37.783Z,101323.91
2023-12-02T10:22:08.193Z,101324.91
2023-12-02T10:25:07.204Z,101325.75
2023-12-02T10:27:40.364Z,101323.47
2023-12-02T10:30:17.248Z,101333.97
2023-12-02T10:33:09.674Z,101339.56
2023-12-02T10:35:42.694Z,101332.06
2023-12-02T10:38:28.151Z,101339.56
2023-12-02T10:41:31.233Z,101336.44
2023-12-02T10:44:05.115Z,101328.47
2023-12-02T10:46:33.570Z,101330.22
2023-12-02T10:49:02.689Z,101329.13
2023-12-02T10:51:35.176Z,101332.50
2023-12-02T10:54:06.330Z,101337.72
2023-12-02T10:56:37.407Z,101332.38
2023-12-02T10:59:05.683Z,101339.03
2023-12-02T11:02:00.287Z,101336.50
2023-12-02T11:04:39.964Z,101342.28
2023-12-02T11:07:11.440Z,101342.44
2023-12-02T11:09:55.349Z,101337.97
2023-12-02T11:13:05.389Z,101342.22
2023-12-02T11:15:50.070Z,101338.69
2023-12-02T11:18:31.546Z,101339.75
2023-12-02T11:21:06.264Z,101342.94
2023-12-02T11:23:58.994Z,101349.66
2023-12-02T11:26:39.022Z,101344.34
2023-12-02T11:29:41.277Z,101347.22
2023-12-02T11:32:29.987Z,101357.44
2023-12-02T11:35:20.317Z,101343.41
2023-12-02T11:37:47.960Z,101346.97
2023-12-02T11:40:23.685Z,101349.88
2023-12-02T11:42:58.057Z,101338.03
2023-12-02T11:45:40.032Z,101337.97
2023-12-02T11:48:12.610Z,101338.03
2023-12-02T11:50:49.448Z,101338.56
2023-12-02T11:53:40.746Z,101340.88
2023-12-02T11:56:13.221Z,101331.00
2023-12-02T11:58:53.029Z,101337.59
2023-12-02T12:01:36.584Z,101340.16
2023-12-02T12:04:32.143Z,101342.03
2023-12-02T12:07:21.839Z,101334.50
2023-12-02T12:10:12.211Z,101338.88
2023-12-02T12:12:43.811Z,101330.94
2023-12-02T12:15:11.671Z,101336.38
2023-12-02T12:17:39.824Z,101344.03
2023-12-02T12:20:21.151Z,101340.56
2023-12-02T12:22:49.419Z,101340.88
2023-12-02T12:25:17.347Z,101333.75
2023-12-02T12:27:45.700Z,101344.13
2023-12-02T12:30:13.737Z,101343.97
2023-12-02T12:32:41.684Z,101341.66
2023-12-02T12:35:16.268Z,101341.94
2023-12-02T12:37:45.981Z,101339.31
2023-12-02T12:40:14.174Z,101343.28
2023-12-02T12:42:51.631Z,101343.28
2023-12-02T12:45:19.462Z,101337.91
2023-12-02T12:47:47.381Z,101339.50
2023-12-02T12:50:16.989Z,101350.19
2023-12-02T12:52:51.616Z,101358.06
2023-12-02T12:55:31.077Z,101356.28
2023-12-02T12:58:01.592Z,101354.84
2023-12-02T13:00:34.983Z,101368.16
2023-12-02T13:03:02.774Z,101367.50
2023-12-02T13:05:40.314Z,101377.19
2023-12-02T13:08:30.512Z,101371.63
2023-12-02T13:11:12.131Z,101373.03
2023-12-02T13:13:53.430Z,101370.59
2023-12-02T13:16:23.748Z,101364.59
2023-12-02T13:18:55.145Z,101371.50
2023-12-02T13:21:24.363Z,101382.94
2023-12-02T13:23:55.150Z,101375.78
2023-12-02T13:26:34.564Z,101386.91
2023-12-02T13:29:05.672Z,101397.16
2023-12-02T13:31:39.174Z,101395.53
2023-12-02T13:34:22.314Z,101400.41
2023-12-02T13:36:54.190Z,101405.69
2023-12-02T13:39:28.771Z,101409.06
2023-12-02T13:42:00.218Z,101417.72
2023-12-02T13:44:31.763Z,101413.31
2023-12-02T13:47:21.733Z,101409.88
2023-12-02T13:49:59.314Z,101416.31
2023-12-02T13:53:00.714Z,101413.00
2023-12-02T13:55:56.046Z,101414.09
2023-12-02T13:58:23.878Z,101413.53
2023-12-02T14:01:10.251Z,101410.78
2023-12-02T14:03:52.969Z,101411.66
2023-12-02T14:06:25.358Z,101419.22
2023-12-02T14:08:58.890Z,101424.16
2023-12-02T14:11:51.323Z,101425.69
2023-12-02T14:14:40.639Z,101431.25
2023-12-02T14:17:38.754Z,101427.31
2023-12-02T14:20:41.707Z,101429.28
2023-12-02T14:23:21.302Z,101445.53
2023-12-02T14:26:32.525Z,101447.44
2023-12-02T14:29:18.407Z,101448.47
2023-12-02T14:32:08.813Z,101464.19
2023-12-02T14:35:01.799Z,101456.19
2023-12-02T14:37:52.319Z,101462.66
2023-12-02T14:40:29.018Z,101455.72
2023-12-02T14:43:05.842Z,101453.44
2023-12-02T14:45:37.908Z,101461.44
2023-12-02T14:48:13.180Z,101471.81
2023-12-02T14:50:45.686Z,101473.09
2023-12-02T14:53:15.297Z,101465.16
2023-12-02T14:55:43.453Z,101471.22
2023-12-02T14:58:29.826Z,101474.53
2023-12-02T15:01:04.680Z,101480.44
2023-12-02T15:03:36.310Z,101480.94
2023-12-02T15:06:06.628Z,101495.78
2023-12-02T15:08:41.942Z,101496.66
2023-12-02T15:11:10.984Z,101503.81
2023-12-02T15:13:39.043Z,101507.91
2023-12-02T15:16:08.003Z,101508.63
2023-12-02T15:18:37.134Z,101529.69
2023-12-02T15:21:14.668Z,101537.44
2023-12-02T15:23:43.852Z,101533.34
2023-12-02T15:26:20.796Z,101543.84
2023-12-02T15:28:54.376Z,101544.66
2023-12-02T15:31:22.153Z,101550.91
2023-12-02T15:33:52.273Z,101555.97
2023-12-02T15:36:21.016Z,101554.91
2023-12-02T15:38:51.152Z,101554.09
2023-12-02T15:41:19.728Z,101565.44
2023-12-02T15:43:55.050Z,101568.09
2023-12-02T15:46:23.318Z,101571.72
2023-12-02T15:48:53.767Z,101567.06
2023-12-02T15:51:21.787Z,101561.06
2023-12-02T15:53:52.595Z,101562.81
2023-12-02T15:56:22.574Z,101570.72
2023-12-02T15:58:51.811Z,101568.94
2023-12-02T16:01:21.143Z,101580.25
2023-12-02T16:03:50.168Z,101584.59
2023-12-02T16:06:26.476Z,101593.41
2023-12-02T16:08:55.009Z,101608.50
2023-12-02T16:11:23.792Z,101602.16
2023-12-02T16:13:52.888Z,101605.78
2023-12-02T16:16:21.620Z,101614.16
2023-12-02T16:21:20.211Z,101617.47
2023-12-02T16:23:49.333Z,101622.72
2023-12-02T16:26:18.257Z,101632.53
2023-12-02T16:28:46.946Z,101635.25
2023-12-02T16:31:14.709Z,101639.66
2023-12-02T16:33:43.079Z,101640.63
2023-12-02T16:36:14.595Z,101645.78
2023-12-02T16:38:42.635Z,101639.72
2023-12-02T16:41:10.461Z,101639.56
2023-12-02T16:43:38.476Z,101629.91
2023-12-02T16:46:08.187Z,101641.09
2023-12-02T16:48:37.571Z,101642.13
2023-12-02T16:51:07.787Z,101651.06
2023-12-02T16:53:36.345Z,101652.06
2023-12-02T16:56:14.619Z,101648.59
2023-12-02T16:58:49.019Z,101650.47
2023-12-02T17:01:27.160Z,101653.69
2023-12-02T17:03:55.780Z,101647.84
2023-12-02T17:06:24.134Z,101648.06
2023-12-02T17:08:58.214Z,101651.44
2023-12-02T17:11:30.855Z,101649.19
2023-12-02T17:14:01.332Z,101652.84
2023-12-02T17:16:36.004Z,101659.03
2023-12-02T17:19:11.548Z,101657.38
2023-12-02T17:21:56.771Z,101661.94
2023-12-02T17:24:28.845Z,101662.66
2023-12-02T17:26:57.533Z,101656.59
2023-12-02T17:29:30.188Z,101653.16
2023-12-02T17:31:59.658Z,101663.75
2023-12-02T17:34:29.598Z,101660.97
2023-12-02T17:36:58.217Z,101661.03
2023-12-02T17:39:26.251Z,101660.19
2023-12-02T17:41:54.353Z,101669.19
2023-12-02T17:44:22.098Z,101666.47
2023-12-02T17:46:50.991Z,101665.56
2023-12-02T17:49:20.547Z,101661.31
2023-12-02T17:51:48.444Z,101658.84
2023-12-02T17:54:16.333Z,101660.69
2023-12-02T17:56:44.188Z,101667.38
2023-12-02T17:59:12.610Z,101665.78
2023-12-02T18:01:40.491Z,101666.66
2023-12-02T18:04:08.257Z,101673.50
2023-12-02T18:06:36.395Z,101669.81
2023-12-02T18:09:04.300Z,101678.50
2023-12-02T18:11:32.236Z,101691.84
2023-12-02T18:14:00.016Z,101685.66
2023-12-02T18:16:27.722Z,101686.44
2023-12-02T18:18:57.522Z,101680.19
2023-12-02T18:21:25.647Z,101685.16
2023-12-02T18:23:58.852Z,101687.94
2023-12-02T18:26:26.831Z,101694.81
2023-12-02T18:28:54.474Z,101699.00
2023-12-02T18:31:22.641Z,101699.63
2023-12-02T18:33:50.504Z,101705.81
2023-12-02T18:36:18.355Z,101703.94
2023-12-02T18:38:46.125Z,101703.72
2023-12-02T18:41:13.868Z,101707.53
2023-12-02T18:43:41.534Z,101717.13
2023-12-02T18:46:10.308Z,101710.19
2023-12-02T18:48:38.230Z,101699.69
2023-12-02T18:51:06.318Z,101713.69
2023-12-02T18:53:34.098Z,101708.53
2023-12-02T18:56:01.871Z,101716.94
2023-12-02T18:58:32.416Z,101724.78
2023-12-02T19:01:00.264Z,101727.13
2023-12-02T19:03:28.183Z,101722.59
2023-12-02T19:05:56.577Z,101727.03
2023-12-02T19:08:24.417Z,101714.44
2023-12-02T19:10:52.300Z,101720.50
2023-12-02T19:13:20.066Z,101722.38
2023-12-02T19:15:47.828Z,101725.63
2023-12-02T19:18:15.788Z,101731.97
2023-12-02T19:20:43.679Z,101739.84
2023-12-02T19:23:11.633Z,101731.91
2023-12-02T19:25:39.758Z,101731.59
2023-12-02T19:28:07.679Z,101738.69
2023-12-02T19:30:35.425Z,101735.16
2023-12-02T19:33:03.576Z,101737.84
2023-12-02T19:35:31.627Z,101745.66
2023-12-02T19:38:03.117Z,101737.81
2023-12-02T19:40:31.036Z,101745.66
2023-12-02T19:43:02.067Z,101743.91
2023-12-02T19:45:30.267Z,101745.50
2023-12-02T19:47:58.147Z,101742.91
2023-12-02T19:50:25.957Z,101743.16
2023-12-02T19:52:53.849Z,101750.28
2023-12-02T19:55:21.524Z,101745.22
2023-12-02T19:57:49.385Z,101754.53
2023-12-02T20:00:17.992Z,101753.69
2023-12-02T20:02:45.786Z,101750.28
2023-12-02T20:05:14.767Z,101744.09
2023-12-02T20:07:42.675Z,101755.44
2023-12-02T20:10:11.553Z,101755.81
2023-12-02T20:12:39.392Z,101766.25
2023-12-02T20:15:07.758Z,101770.47
2023-12-02T20:17:35.610Z,101772.97
2023-12-02T20:20:04.116Z,101768.66
2023-12-02T20:22:31.906Z,101772.94
2023-12-02T20:24:59.668Z,101774.75
2023-12-02T20:27:27.564Z,101776.16
2023-12-02T20:29:55.315Z,101780.19
2023-12-02T20:32:23.072Z,101777.97
2023-12-02T20:34:51.513Z,101781.72
2023-12-02T20:37:20.372Z,101789.38
2023-12-02T20:39:48.249Z,101787.47
2023-12-02T20:42:16.117Z,101784.84
2023-12-02T20:44:43.862Z,101784.31
2023-12-02T20:47:11.728Z,101781.59
2023-12-02T20:49:39.624Z,101777.34
2023-12-02T20:52:08.009Z,101786.78
2023-12-02T20:54:35.830Z,101785.88
2023-12-02T20:57:03.879Z,101785.03
2023-12-02T20:59:32.700Z,101790.09
2023-12-02T21:02:00.653Z,101789.09
2023-12-02T21:04:28.621Z,101793.53
2023-12-02T21:06:56.377Z,101786.78
2023-12-02T21:09:24.193Z,101786.78
2023-12-02T21:11:51.960Z,101789.28
2023-12-02T21:14:19.794Z,101785.81
2023-12-02T21:16:47.572Z,101786.63
2023-12-02T21:19:18.380Z,101788.41
2023-12-02T21:21:47.696Z,101791.09
2023-12-02T21:24:15.931Z,101780.81
2023-12-02T21:26:47.019Z,101787.03
2023-12-02T21:29:14.861Z,101785.13
2023-12-02T21:31:42.814Z,101778.03
2023-12-02T21:34:12.289Z,101787.88
2023-12-02T21:36:40.248Z,101794.91
2023-12-02T21:39:14.414Z,101783.38
2023-12-02T21:41:42.412Z,101788.59
2023-12-02T21:44:10.184Z,101793.97
2023-12-02T21:46:37.852Z,101785.34
2023-12-02T21:49:12.378Z,101788.53
2023-12-02T21:51:45.488Z,101791.19
2023-12-02T21:54:19.821Z,101786.78
2023-12-02T21:56:50.275Z,101779.94
2023-12-02T21:59:19.689Z,101786.94
2023-12-02T22:01:50.489Z,101783.25
2023-12-02T22:04:23.076Z,101788.50
2023-12-02T22:07:04.476Z,101782.28
2023-12-02T22:09:38.564Z,101789.34
2023-12-02T22:12:09.323Z,101789.34
2023-12-02T22:14:37.245Z,101785.88
2023-12-02T22:17:08.837Z,101790.19
2023-12-02T22:19:37.198Z,101798.09
2023-12-02T22:22:39.642Z,101789.09
2023-12-02T22:25:07.490Z,101794.50
2023-12-02T22:27:38.257Z,101798.78
2023-12-02T22:30:24.618Z,101801.44
2023-12-02T22:33:00.688Z,101798.88
2023-12-02T22:35:45.958Z,101810.69
2023-12-02T22:38:37.471Z,101824.59
2023-12-02T22:41:07.700Z,101830.53
2023-12-02T22:43:48.058Z,101833.00
2023-12-02T22:46:20.748Z,101831.94
2023-12-02T22:48:51.917Z,101835.34
2023-12-02T22:51:25.750Z,101824.72
2023-12-02T22:53:55.706Z,101832.94
2023-12-02T22:56:24.496Z,101834.03
2023-12-02T22:58:53.049Z,101833.75
2023-12-02T23:01:30.539Z,101834.59
2023-12-02T23:03:59.278Z,101840.66
2023-12-02T23:06:30.440Z,101850.09
2023-12-02T23:09:00.512Z,101844.63
2023-12-02T23:11:53.090Z,101849.16
2023-12-02T23:14:40.975Z,101838.75
2023-12-02T23:17:14.516Z,101841.63
2023-12-02T23:19:42.447Z,101838.06
2023-12-02T23:22:10.290Z,101842.94
2023-12-02T23:24:39.337Z,101837.63
2023-12-02T23:27:14.328Z,101837.75
2023-12-02T23:29:42.137Z,101840.41
2023-12-02T23:32:10.008Z,101839.38
2023-12-02T23:34:37.859Z,101832.50
2023-12-02T23:37:05.746Z,101834.22
2023-12-02T23:39:33.558Z,101825.38
2023-12-02T23:42:03.645Z,101820.06
2023-12-02T23:44:44.682Z,101824.34
2023-12-02T23:47:19.903Z,101829.75
2023-12-02T23:49:47.718Z,101834.09
2023-12-02T23:52:15.612Z,101830.84
2023-12-02T23:54:43.562Z,101831.59
2023-12-02T23:57:11.879Z,101841.22
2023-12-02T23:59:39.977Z,101844.53
